createdAt,value
2022-08-10T00:01:53.616Z,93.71
2022-08-10T00:04:23.835Z,93.68
2022-08-10T00:06:55.789Z,93.75
2022-08-10T00:09:25.047Z,93.85
2022-08-10T00:11:52.671Z,94.01
2022-08-10T00:14:20.645Z,93.88
2022-08-10T00:16:48.795Z,94.17
2022-08-10T00:19:18.085Z,94.37
2022-08-10T00:21:47.429Z,94.54
2022-08-10T00:24:15.803Z,94.71
2022-08-10T00:27:50.066Z,95.10
2022-08-10T00:29:32.386Z,94.90
2022-08-10T00:32:00.085Z,95.05
2022-08-10T00:34:29.690Z,94.88
2022-08-10T00:36:58.807Z,94.87
2022-08-10T00:39:28.646Z,94.82
2022-08-10T00:42:02.175Z,94.87
2022-08-10T00:44:44.484Z,95.25
2022-08-10T00:47:22.550Z,95.36
2022-08-10T00:50:01.852Z,95.81
2022-08-10T00:52:30.911Z,96.38
2022-08-10T00:54:59.267Z,96.35
2022-08-10T00:57:27.760Z,96.75
2022-08-10T00:59:59.323Z,96.81
2022-08-10T01:02:30.603Z,96.92
2022-08-10T01:05:07.802Z,96.87
2022-08-10T01:07:53.514Z,96.96
2022-08-10T01:10:28.398Z,96.91
2022-08-10T01:13:14.287Z,96.67
2022-08-10T01:16:18.172Z,96.23
2022-08-10T01:19:18.101Z,95.61
2022-08-10T01:22:10.398Z,95.31
2022-08-10T01:24:59.927Z,95.34
2022-08-10T01:27:36.494Z,95.64
2022-08-10T01:30:13.441Z,95.59
2022-08-10T01:33:06.898Z,96.01
2022-08-10T01:35:46.172Z,96.31
2022-08-10T01:38:42.000Z,96.68
2022-08-10T01:41:45.553Z,97.29
2022-08-10T01:44:16.623Z,97.66
2022-08-10T01:46:56.905Z,97.98
2022-08-10T01:49:26.897Z,98.22
2022-08-10T01:52:00.511Z,98.15
2022-08-10T01:54:30.648Z,98.25
2022-08-10T01:56:59.828Z,97.87
2022-08-10T01:59:41.811Z,97.74
2022-08-10T02:02:25.540Z,97.30
2022-08-10T02:04:54.695Z,97.55
2022-08-10T02:07:27.724Z,97.96
2022-08-10T02:10:04.799Z,97.99
2022-08-10T02:12:35.984Z,98.33
2022-08-10T02:15:12.661Z,98.31
2022-08-10T02:18:02.245Z,98.42
2022-08-10T02:20:40.189Z,98.25
2022-08-10T02:23:16.508Z,98.39
2022-08-10T02:25:45.046Z,98.16
2022-08-10T02:28:29.992Z,98.52
2022-08-10T02:31:16.844Z,98.79
2022-08-10T02:33:56.529Z,98.93
2022-08-10T02:36:32.122Z,99.27
2022-08-10T02:39:04.848Z,99.56
2022-08-10T02:45:14.169Z,100.00
2022-08-10T02:45:24.707Z,100.00
2022-08-10T02:48:07.244Z,100.00
2022-08-10T02:50:40.331Z,100.00
2022-08-10T02:53:55.751Z,100.00
2022-08-10T02:56:58.461Z,100.00
2022-08-10T02:59:42.055Z,100.00
2022-08-10T03:02:20.049Z,100.00
2022-08-10T03:04:55.277Z,100.00
2022-08-10T03:07:44.352Z,100.00
2022-08-10T03:10:41.092Z,100.00
2022-08-10T03:13:11.236Z,100.00
2022-08-10T03:15:40.377Z,100.00
2022-08-10T03:18:09.351Z,100.00
2022-08-10T03:20:40.806Z,100.00
2022-08-10T03:23:23.372Z,100.00
2022-08-10T03:25:55.116Z,100.00
2022-08-10T03:28:29.264Z,100.00
2022-08-10T03:31:00.092Z,100.00
2022-08-10T03:33:32.446Z,100.00
2022-08-10T03:36:43.773Z,100.00
2022-08-10T03:38:51.891Z,100.00
2022-08-10T03:41:36.641Z,100.00
2022-08-10T03:44:06.951Z,100.00
2022-08-10T03:46:37.393Z,100.00
2022-08-10T03:49:07.063Z,100.00
2022-08-10T03:51:36.097Z,100.00
2022-08-10T03:54:07.374Z,100.00
2022-08-10T03:56:37.616Z,100.00
2022-08-10T03:59:07.595Z,100.00
2022-08-10T04:02:41.696Z,100.00
2022-08-10T04:04:25.666Z,100.00
2022-08-10T04:06:57.077Z,100.00
2022-08-10T04:09:54.353Z,100.00
2022-08-10T04:12:24.373Z,100.00
2022-08-10T04:14:53.544Z,100.00
2022-08-10T04:18:01.311Z,100.00
2022-08-10T04:20:34.385Z,99.46
2022-08-10T04:23:12.304Z,97.97
2022-08-10T04:25:41.031Z,97.12
2022-08-10T04:28:10.744Z,96.89
2022-08-10T04:30:40.521Z,96.05
2022-08-10T04:33:13.824Z,95.70
2022-08-10T04:35:45.232Z,95.50
2022-08-10T04:38:15.615Z,94.35
2022-08-10T04:40:45.118Z,94.09
2022-08-10T04:43:13.596Z,93.99
2022-08-10T04:45:50.423Z,93.74
2022-08-10T04:48:39.900Z,94.12
2022-08-10T04:51:18.428Z,94.24
2022-08-10T04:54:04.864Z,94.12
2022-08-10T04:56:37.149Z,94.11
2022-08-10T04:59:06.920Z,93.79
2022-08-10T05:02:21.359Z,93.14
2022-08-10T05:04:36.624Z,92.71
2022-08-10T05:07:18.404Z,91.81
2022-08-10T05:10:01.827Z,90.72
2022-08-10T05:12:37.387Z,88.62
2022-08-10T05:15:13.906Z,87.34
2022-08-10T05:18:03.320Z,87.31
2022-08-10T05:20:31.269Z,87.33
2022-08-10T05:22:59.065Z,86.69
2022-08-10T05:25:26.842Z,86.72
2022-08-10T05:27:57.480Z,86.53
2022-08-10T05:30:25.488Z,86.02
2022-08-10T05:32:58.530Z,86.00
2022-08-10T05:35:55.187Z,86.20
2022-08-10T05:38:20.774Z,84.75
2022-08-10T05:40:50.465Z,83.82
2022-08-10T05:43:22.438Z,82.97
2022-08-10T05:46:19.938Z,83.22
2022-08-10T05:48:58.811Z,82.62
2022-08-10T05:51:30.093Z,82.19
2022-08-10T05:54:05.120Z,82.61
2022-08-10T05:56:53.265Z,82.03
2022-08-10T06:00:31.061Z,80.89
2022-08-10T06:02:35.512Z,79.84
2022-08-10T06:05:32.264Z,79.38
2022-08-10T06:08:17.573Z,78.79
2022-08-10T06:12:16.467Z,75.99
2022-08-10T06:14:06.144Z,74.23
2022-08-10T06:16:43.895Z,73.57
2022-08-10T06:19:15.170Z,73.80
2022-08-10T06:21:53.736Z,72.82
2022-08-10T06:24:31.403Z,72.23
2022-08-10T06:27:00.040Z,73.03
2022-08-10T06:29:30.935Z,73.36
2022-08-10T06:32:01.392Z,72.74
2022-08-10T06:34:36.501Z,70.95
2022-08-10T06:37:06.543Z,70.74
2022-08-10T06:39:36.762Z,70.09
2022-08-10T06:42:35.711Z,70.06
2022-08-10T06:45:16.632Z,68.35
2022-08-10T06:47:56.004Z,66.63
2022-08-10T06:50:44.822Z,65.76
2022-08-10T06:53:19.551Z,63.91
2022-08-10T06:55:55.526Z,61.84
2022-08-10T06:58:29.136Z,59.86
2022-08-10T07:00:58.890Z,58.64
2022-08-10T07:03:35.420Z,57.78
2022-08-10T07:06:06.777Z,53.27
2022-08-10T07:08:36.946Z,48.93
2022-08-10T07:11:11.850Z,47.16
2022-08-10T07:14:15.568Z,47.85
2022-08-10T07:16:32.400Z,48.43
2022-08-10T07:19:01.719Z,48.30
2022-08-10T07:21:31.088Z,45.32
2022-08-10T07:24:02.295Z,43.70
2022-08-10T07:26:32.982Z,42.82
2022-08-10T07:29:02.223Z,40.50
2022-08-10T07:31:55.190Z,37.92
2022-08-10T07:34:29.422Z,35.17
2022-08-10T07:37:03.709Z,33.02
2022-08-10T07:40:02.552Z,32.09
2022-08-10T07:42:24.386Z,30.58
2022-08-10T07:44:52.930Z,27.64
2022-08-10T07:47:46.092Z,25.89
2022-08-10T07:50:22.568Z,23.55
2022-08-10T07:52:52.112Z,22.41
2022-08-10T07:56:05.317Z,21.42
2022-08-10T07:58:11.520Z,21.55
2022-08-10T08:00:40.945Z,20.81
2022-08-10T08:03:10.836Z,21.53
2022-08-10T08:05:58.443Z,21.78
2022-08-10T08:08:30.474Z,22.66
2022-08-10T08:10:59.658Z,21.29
2022-08-10T08:13:28.279Z,21.00
2022-08-10T08:16:17.532Z,23.54
2022-08-10T08:18:54.182Z,24.26
2022-08-10T08:24:08.455Z,23.37
2022-08-10T08:24:33.518Z,25.03
2022-08-10T08:27:03.821Z,25.20
2022-08-10T08:29:37.301Z,24.95
2022-08-10T08:32:06.391Z,24.32
2022-08-10T08:34:38.747Z,22.41
2022-08-10T08:37:09.765Z,24.37
2022-08-10T08:39:38.628Z,24.98
2022-08-10T08:42:26.311Z,23.02
2022-08-10T08:45:34.424Z,21.96
2022-08-10T08:48:08.385Z,21.84
2022-08-10T08:52:07.102Z,23.05
2022-08-10T08:54:16.945Z,26.18
2022-08-10T08:57:07.064Z,27.21
2022-08-10T09:00:07.000Z,28.28
2022-08-10T09:02:58.460Z,26.31
2022-08-10T09:05:58.792Z,26.06
2022-08-10T09:08:51.453Z,27.22
2022-08-10T09:11:56.514Z,27.33
2022-08-10T09:14:33.441Z,28.53
2022-08-10T09:17:25.041Z,27.62
2022-08-10T09:20:07.893Z,25.16
2022-08-10T09:22:44.767Z,23.57
2022-08-10T09:25:24.706Z,21.56
2022-08-10T09:28:01.270Z,21.10
2022-08-10T09:31:18.804Z,20.11
2022-08-10T09:36:20.490Z,19.22
2022-08-10T09:37:08.660Z,17.84
2022-08-10T09:40:12.573Z,17.77
2022-08-10T09:43:25.563Z,18.68
2022-08-10T09:46:06.604Z,18.41
2022-08-10T09:49:17.340Z,18.91
2022-08-10T09:52:00.834Z,19.03
2022-08-10T09:54:50.066Z,19.30
2022-08-10T09:57:44.099Z,18.01
2022-08-10T10:00:40.543Z,19.75
2022-08-10T10:03:40.712Z,22.86
2022-08-10T10:06:21.018Z,24.84
2022-08-10T10:09:10.686Z,27.21
2022-08-10T10:12:17.684Z,28.89
2022-08-10T10:15:24.626Z,29.87
2022-08-10T10:18:21.934Z,31.94
2022-08-10T10:21:24.240Z,32.21
2022-08-10T10:24:21.452Z,33.47
2022-08-10T10:26:57.939Z,34.25
2022-08-10T10:29:58.773Z,34.72
2022-08-10T10:32:37.139Z,35.73
2022-08-10T10:35:41.277Z,36.18
2022-08-10T10:38:12.249Z,36.27
2022-08-10T10:41:14.043Z,37.13
2022-08-10T10:44:09.854Z,36.38
2022-08-10T10:46:56.874Z,35.66
2022-08-10T10:49:46.296Z,35.54
2022-08-10T10:52:47.752Z,35.56
2022-08-10T10:56:13.366Z,34.40
